Time;durP1;ratioP1;P1;durP2;ratioP2;P2;SDS_P1;SDS_P2;PMS_P1;PMS_P2;Temp;Humidity;BMP_temperature;BMP_pressure;BME280_temperature;BME280_humidity;BME280_pressure;Samples;Min_cycle;Max_cycle;Signal;HPM_P1;HPM_P2
2022/04/04 00:00:00;;;;;;;5.25;4.47;;;3.30;1.00;;;;;;4942564;28;20248;-76
2022/04/04 00:02:27;;;;;;;4.88;4.43;;;3.20;1.00;;;;;;4950348;28;20247;-77
2022/04/04 00:05:09;;;;;;;4.70;4.20;;;3.20;1.00;;;;;;4950949;28;20230;-78
2022/04/04 00:07:36;;;;;;;6.68;4.60;;;3.20;1.00;;;;;;4950098;28;20469;-77
2022/04/04 00:10:09;;;;;;;6.80;4.70;;;3.20;1.00;;;;;;4925638;28;20268;-77
2022/04/04 00:15:28;;;;;;;5.65;4.00;;;3.30;1.00;;;;;;4932358;28;20415;-79
2022/04/04 00:18:06;;;;;;;5.82;4.57;;;3.20;1.00;;;;;;4941509;28;20229;-77
2022/04/04 00:20:49;;;;;;;6.50;4.50;;;3.20;1.00;;;;;;4953915;28;20246;-77
2022/04/04 00:23:19;;;;;;;4.72;4.20;;;3.30;1.00;;;;;;4956259;28;20241;-77
2022/04/04 00:25:49;;;;;;;6.28;5.10;;;3.20;1.00;;;;;;4931215;28;20275;-77
2022/04/04 00:28:19;;;;;;;5.25;4.75;;;3.20;1.00;;;;;;4935893;28;20235;-78
2022/04/04 00:30:50;;;;;;;6.68;4.65;;;3.20;1.00;;;;;;4945647;28;20248;-79
2022/04/04 00:33:17;;;;;;;5.18;4.68;;;3.20;1.00;;;;;;4948312;28;20284;-79
2022/04/04 00:35:59;;;;;;;4.30;3.90;;;3.20;1.00;;;;;;4915091;28;20229;-77
2022/04/04 00:38:26;;;;;;;7.45;4.90;;;3.20;1.00;;;;;;4916806;28;20270;-78
2022/04/04 00:41:01;;;;;;;5.40;4.25;;;3.20;1.00;;;;;;4937007;28;20253;-77
2022/04/04 00:43:29;;;;;;;7.68;5.10;;;3.20;1.00;;;;;;4944964;28;20244;-76
2022/04/04 00:46:00;;;;;;;5.45;4.72;;;3.20;1.00;;;;;;4930923;28;20953;-76
2022/04/04 00:48:30;;;;;;;6.88;5.45;;;3.20;1.00;;;;;;4926546;28;20225;-78
2022/04/04 00:50:59;;;;;;;5.43;4.20;;;3.20;1.00;;;;;;4943404;28;20296;-76
2022/04/04 00:53:31;;;;;;;6.38;4.60;;;3.20;1.00;;;;;;4915005;28;20301;-76
2022/04/04 00:55:59;;;;;;;8.10;5.68;;;3.30;1.00;;;;;;4947504;28;21037;-76
2022/04/04 00:58:31;;;;;;;7.28;4.93;;;3.30;1.00;;;;;;4925837;28;20250;-76
2022/04/04 01:01:00;;;;;;;5.30;4.80;;;3.30;1.00;;;;;;4927265;28;20801;-78
2022/04/04 01:03:30;;;;;;;7.70;5.05;;;3.30;1.00;;;;;;4934959;28;20312;-77
2022/04/04 01:05:59;;;;;;;5.43;4.93;;;3.30;1.00;;;;;;4945932;28;20217;-78
2022/04/04 01:08:26;;;;;;;6.25;5.18;;;3.30;1.00;;;;;;4900644;28;21145;-77
2022/04/04 01:10:57;;;;;;;6.57;4.68;;;3.30;1.00;;;;;;4922526;28;20243;-78
2022/04/04 01:13:57;;;;;;;6.45;5.20;;;3.30;1.00;;;;;;4919527;28;20303;-77
2022/04/04 01:16:39;;;;;;;;;;;;;;;;;;;;;
2022/04/04 01:19:07;;;;;;;6.13;5.10;;;3.30;1.00;;;;;;4918555;28;40083;-78
2022/04/04 01:21:45;;;;;;;5.25;4.75;;;3.30;1.00;;;;;;4941765;28;20230;-77
2022/04/04 01:24:22;;;;;;;7.28;5.20;;;3.30;1.00;;;;;;4945398;28;20241;-77
2022/04/04 01:26:49;;;;;;;7.50;5.57;;;3.30;1.00;;;;;;4932916;28;21145;-77
2022/04/04 01:29:23;;;;;;;6.10;5.05;;;3.30;1.00;;;;;;4942334;28;20236;-77
2022/04/04 01:31:58;;;;;;;7.20;5.47;;;3.20;1.00;;;;;;4934773;28;20291;-77
2022/04/04 01:34:25;;;;;;;5.72;5.10;;;3.20;1.00;;;;;;4946993;28;20241;-77
2022/04/04 01:37:00;;;;;;;6.53;5.82;;;3.20;1.00;;;;;;4921274;28;20245;-77
2022/04/04 01:39:29;;;;;;;6.97;5.88;;;3.20;1.00;;;;;;4946221;28;20221;-78
2022/04/04 01:41:58;;;;;;;6.15;5.18;;;3.20;1.00;;;;;;4942969;28;20229;-78
2022/04/04 01:44:28;;;;;;;10.57;6.20;;;3.10;1.00;;;;;;4928527;28;20357;-78
2022/04/04 01:46:57;;;;;;;6.13;5.40;;;3.10;1.00;;;;;;4943514;28;20241;-79
2022/04/04 01:49:23;;;;;;;6.43;5.00;;;3.10;1.00;;;;;;4946251;28;21201;-78
2022/04/04 01:51:51;;;;;;;6.80;5.70;;;3.10;1.00;;;;;;4951808;28;20776;-79
2022/04/04 01:54:18;;;;;;;7.22;6.10;;;3.00;1.00;;;;;;4945815;28;20272;-75
2022/04/04 01:56:52;;;;;;;7.00;6.40;;;3.00;1.00;;;;;;4938298;28;20252;-76
2022/04/04 01:59:19;;;;;;;6.30;5.70;;;3.00;1.00;;;;;;4938770;28;20324;-76
2022/04/04 02:01:48;;;;;;;8.52;5.95;;;3.00;1.00;;;;;;4937271;28;20245;-77
2022/04/04 02:04:18;;;;;;;7.10;6.40;;;2.90;1.00;;;;;;4915924;28;20250;-78
2022/04/04 02:06:51;;;;;;;9.25;6.07;;;2.90;1.00;;;;;;4932281;28;20237;-79
2022/04/04 02:09:18;;;;;;;7.10;6.15;;;2.90;1.00;;;;;;4936577;28;20273;-80
2022/04/04 02:11:45;;;;;;;7.85;7.05;;;2.90;1.00;;;;;;4937545;28;21908;-77
2022/04/04 02:14:17;;;;;;;7.18;6.47;;;2.90;1.00;;;;;;4917132;28;20305;-76
2022/04/04 02:16:49;;;;;;;6.32;5.70;;;2.80;1.00;;;;;;4931007;28;20482;-76
2022/04/04 02:19:17;;;;;;;6.97;5.88;;;2.80;1.00;;;;;;4914662;28;20245;-78
2022/04/04 02:21:47;;;;;;;7.82;7.00;;;2.80;1.00;;;;;;4938506;28;20237;-78
2022/04/04 02:24:14;;;;;;;6.82;5.85;;;2.80;1.00;;;;;;4940276;28;20312;-77
2022/04/04 02:26:41;;;;;;;7.82;6.45;;;2.80;1.00;;;;;;4908841;28;20269;-77
2022/04/04 02:29:07;;;;;;;8.02;6.82;;;2.80;1.00;;;;;;4926595;28;20939;-76
2022/04/04 02:31:39;;;;;;;10.80;6.35;;;2.90;1.00;;;;;;4893145;28;20444;-78
2022/04/04 02:34:05;;;;;;;7.80;7.00;;;2.90;1.00;;;;;;4910681;28;20310;-78
2022/04/04 02:36:34;;;;;;;7.70;6.32;;;2.90;1.00;;;;;;4930751;28;20304;-77
2022/04/04 02:39:02;;;;;;;7.40;6.55;;;2.90;1.00;;;;;;4910291;28;20253;-77
2022/04/04 02:41:29;;;;;;;7.93;6.88;;;2.90;1.00;;;;;;4914867;28;20300;-77
2022/04/04 02:43:59;;;;;;;7.03;6.32;;;2.80;1.00;;;;;;4918629;28;20353;-77
2022/04/04 02:46:29;;;;;;;7.15;6.13;;;2.80;1.00;;;;;;4930373;28;20308;-76
2022/04/04 02:48:59;;;;;;;9.75;6.63;;;2.80;1.00;;;;;;4920189;28;20236;-78
2022/04/04 02:51:28;;;;;;;8.13;7.30;;;2.80;1.00;;;;;;4918290;28;20233;-75
2022/04/04 02:53:57;;;;;;;8.32;6.63;;;2.80;1.00;;;;;;4945417;28;20305;-79
2022/04/04 02:56:32;;;;;;;8.88;6.63;;;2.80;1.00;;;;;;4938704;28;20327;-77
2022/04/04 02:59:00;;;;;;;8.32;6.80;;;2.80;1.00;;;;;;4940803;28;20232;-78
2022/04/04 03:01:28;;;;;;;8.73;6.95;;;2.80;1.00;;;;;;4942151;28;20361;-79
2022/04/04 03:03:56;;;;;;;8.45;7.60;;;2.80;1.00;;;;;;4934953;28;20285;-78
2022/04/04 03:06:24;;;;;;;7.93;7.13;;;2.80;1.00;;;;;;4940893;28;20383;-79
2022/04/04 03:08:51;;;;;;;8.98;6.70;;;2.80;1.00;;;;;;4938781;28;20458;-78
2022/04/04 03:11:20;;;;;;;8.57;7.75;;;2.70;1.00;;;;;;4931073;28;22582;-78
2022/04/04 03:13:49;;;;;;;8.15;7.32;;;2.70;1.00;;;;;;4951216;28;20229;-77
2022/04/04 03:16:16;;;;;;;7.15;6.30;;;2.70;1.00;;;;;;4935633;28;20312;-78
2022/04/04 03:18:43;;;;;;;9.75;7.13;;;2.70;1.00;;;;;;4929076;28;20335;-78
2022/04/04 03:21:11;;;;;;;9.10;7.90;;;2.70;1.00;;;;;;4922319;28;20336;-78
2022/04/04 03:23:41;;;;;;;7.40;6.35;;;2.70;1.00;;;;;;4924264;28;20229;-78
2022/04/04 03:26:08;;;;;;;8.13;6.95;;;2.60;1.00;;;;;;4940573;28;20794;-78
2022/04/04 03:28:41;;;;;;;8.25;6.88;;;2.60;1.00;;;;;;4935645;28;20253;-78
2022/04/04 03:31:08;;;;;;;8.07;6.80;;;2.60;1.00;;;;;;4928231;28;20237;-78
2022/04/04 03:33:45;;;;;;;7.80;6.93;;;2.60;1.00;;;;;;4913257;28;21892;-79
2022/04/04 03:36:11;;;;;;;11.30;7.25;;;2.50;1.00;;;;;;4911679;28;20236;-78
2022/04/04 03:38:42;;;;;;;8.50;7.20;;;2.50;1.00;;;;;;4915888;28;20317;-77
2022/04/04 03:41:09;;;;;;;15.85;8.45;;;2.50;1.00;;;;;;4907730;28;20245;-75
2022/04/04 03:43:42;;;;;;;9.40;7.63;;;2.50;1.00;;;;;;4906115;28;20782;-77
2022/04/04 03:46:08;;;;;;;7.07;6.38;;;2.50;1.00;;;;;;4920212;28;20327;-76
2022/04/04 03:48:35;;;;;;;8.57;7.75;;;2.50;1.00;;;;;;4926195;28;20237;-77
2022/04/04 03:51:02;;;;;;;9.05;7.20;;;2.50;1.00;;;;;;4931277;28;20238;-76
2022/04/04 03:53:29;;;;;;;8.75;7.85;;;2.50;1.00;;;;;;4933430;28;20321;-76
2022/04/04 03:55:57;;;;;;;8.73;7.80;;;2.40;1.00;;;;;;4924301;28;20303;-77
2022/04/04 03:58:24;;;;;;;8.63;7.82;;;2.40;1.00;;;;;;4930778;28;20258;-76
2022/04/04 04:00:51;;;;;;;8.85;7.75;;;2.40;1.00;;;;;;4902968;28;20245;-77
2022/04/04 04:03:20;;;;;;;10.63;8.55;;;2.40;1.00;;;;;;4905824;28;20247;-76
2022/04/04 04:05:46;;;;;;;8.82;7.93;;;2.40;1.00;;;;;;4914137;28;21248;-76
2022/04/04 04:08:13;;;;;;;9.02;8.23;;;2.40;1.00;;;;;;4921072;28;20261;-76
2022/04/04 04:10:40;;;;;;;9.82;8.07;;;2.40;1.00;;;;;;4929974;28;20280;-76
2022/04/04 04:13:11;;;;;;;10.27;7.40;;;2.30;1.00;;;;;;4924481;28;20237;-76
2022/04/04 04:15:40;;;;;;;12.93;7.90;;;2.30;1.00;;;;;;4949696;28;20331;-76
2022/04/04 04:18:07;;;;;;;9.95;8.00;;;2.30;1.00;;;;;;4942165;28;20404;-78
2022/04/04 04:20:35;;;;;;;11.65;8.27;;;2.30;1.00;;;;;;4926926;28;21052;-76
2022/04/04 04:23:04;;;;;;;7.65;6.95;;;2.30;1.00;;;;;;4942206;28;20304;-76
2022/04/04 04:25:33;;;;;;;9.18;7.88;;;2.30;1.00;;;;;;4949139;28;20304;-76
2022/04/04 04:28:02;;;;;;;10.18;8.43;;;2.30;1.00;;;;;;4942652;28;20248;-76
2022/04/04 04:30:31;;;;;;;9.95;7.93;;;2.30;1.00;;;;;;4951217;28;20244;-76
2022/04/04 04:33:00;;;;;;;10.02;8.75;;;2.40;1.00;;;;;;4959598;28;20241;-76
2022/04/04 04:35:27;;;;;;;17.65;10.70;;;2.40;1.00;;;;;;4963422;28;20237;-77
2022/04/04 04:37:54;;;;;;;8.77;7.65;;;2.40;1.00;;;;;;4958676;28;21545;-76
2022/04/04 04:40:24;;;;;;;8.57;7.50;;;2.40;1.00;;;;;;4940649;28;20253;-78
2022/04/04 04:42:52;;;;;;;8.07;7.30;;;2.40;1.00;;;;;;4948222;28;20992;-77
2022/04/04 04:45:22;;;;;;;11.52;8.05;;;2.40;1.00;;;;;;4942963;28;20236;-77
2022/04/04 04:47:51;;;;;;;8.32;7.50;;;2.40;1.00;;;;;;4952873;28;20237;-76
2022/04/04 04:50:20;;;;;;;8.32;7.25;;;2.40;1.00;;;;;;4947893;28;22043;-75
2022/04/04 04:52:48;;;;;;;7.90;7.13;;;2.40;1.00;;;;;;4946420;28;20232;-76
2022/04/04 04:55:18;;;;;;;8.75;7.43;;;2.30;1.00;;;;;;4912284;28;20269;-80
2022/04/04 04:57:48;;;;;;;7.80;7.00;;;2.30;1.00;;;;;;4940303;28;20300;-77
2022/04/04 05:00:17;;;;;;;12.07;8.30;;;2.30;1.00;;;;;;4945102;28;20272;-76
2022/04/04 05:03:24;;;;;;;10.68;8.02;;;2.20;1.00;;;;;;4942134;28;20241;-78
2022/04/04 05:05:39;;;;;;;8.63;7.65;;;2.20;1.00;;;;;;4943761;28;20243;-78
2022/04/04 05:08:06;;;;;;;9.35;8.10;;;2.10;1.00;;;;;;4935090;28;20799;-77
2022/04/04 05:10:40;;;;;;;8.85;7.95;;;2.10;1.00;;;;;;4933229;28;20453;-78
2022/04/04 05:13:07;;;;;;;10.27;8.77;;;2.10;1.00;;;;;;4937005;28;20245;-79
2022/04/04 05:15:38;;;;;;;9.70;7.95;;;2.10;1.00;;;;;;4930882;28;20241;-76
2022/04/04 05:18:10;;;;;;;9.00;8.10;;;2.10;1.00;;;;;;4941319;28;20286;-76
2022/04/04 05:20:37;;;;;;;9.15;7.97;;;2.20;1.00;;;;;;4945477;28;20315;-76
2022/04/04 05:23:07;;;;;;;9.32;7.78;;;2.20;1.00;;;;;;4945926;28;20244;-76
2022/04/04 05:25:34;;;;;;;16.30;8.48;;;2.30;1.00;;;;;;4948432;28;20233;-77
2022/04/04 05:28:01;;;;;;;8.57;7.68;;;2.30;1.00;;;;;;4937953;28;20356;-77
2022/04/04 05:30:30;;;;;;;9.48;8.48;;;2.40;1.00;;;;;;4932426;28;20296;-78
2022/04/04 05:32:59;;;;;;;8.90;8.10;;;2.50;1.00;;;;;;4935860;28;20212;-75
2022/04/04 05:35:29;;;;;;;8.82;8.00;;;2.50;1.00;;;;;;4921415;28;20256;-76
2022/04/04 05:37:56;;;;;;;8.73;7.68;;;2.60;1.00;;;;;;4950006;28;20248;-79
2022/04/04 05:40:29;;;;;;;10.13;8.85;;;2.70;1.00;;;;;;4953897;28;20251;-77
2022/04/04 05:42:56;;;;;;;8.85;7.68;;;2.70;1.00;;;;;;4957597;28;20304;-77
2022/04/04 05:45:30;;;;;;;9.68;8.25;;;2.70;1.00;;;;;;4958163;28;20332;-77
2022/04/04 05:48:02;;;;;;;10.52;8.23;;;2.80;1.00;;;;;;4964690;28;20248;-78
2022/04/04 05:50:30;;;;;;;9.13;8.23;;;3.00;1.00;;;;;;4944643;28;20637;-76
2022/04/04 05:52:59;;;;;;;10.15;8.57;;;3.10;1.00;;;;;;4964056;28;20252;-79
2022/04/04 05:55:41;;;;;;;11.57;8.38;;;3.10;1.00;;;;;;4945303;28;20689;-79
2022/04/04 05:58:11;;;;;;;9.50;8.60;;;3.10;1.00;;;;;;4936701;28;20243;-76
2022/04/04 06:00:38;;;;;;;9.80;8.85;;;3.10;1.00;;;;;;4944270;28;20241;-80
2022/04/04 06:03:14;;;;;;;9.55;8.57;;;3.20;1.00;;;;;;4955521;28;20221;-78
2022/04/04 06:05:52;;;;;;;11.70;8.98;;;3.20;1.00;;;;;;4950686;28;20241;-76
2022/04/04 06:08:19;;;;;;;11.10;9.18;;;3.30;1.00;;;;;;4936647;28;21544;-76
2022/04/04 06:10:47;;;;;;;9.20;8.18;;;3.40;1.00;;;;;;4945228;28;20234;-76
2022/04/04 06:13:14;;;;;;;8.43;7.63;;;3.40;1.00;;;;;;4937505;28;20245;-77
2022/04/04 06:15:42;;;;;;;9.77;8.68;;;3.60;1.00;;;;;;4947640;28;20249;-76
2022/04/04 06:18:20;;;;;;;9.38;8.07;;;3.60;1.00;;;;;;4926942;28;20250;-78
2022/04/04 06:20:51;;;;;;;11.80;9.02;;;3.70;1.00;;;;;;4931136;28;20233;-76
2022/04/04 06:23:21;;;;;;;11.90;9.35;;;3.80;1.00;;;;;;4926989;28;20234;-76
2022/04/04 06:25:51;;;;;;;10.07;9.07;;;3.80;1.00;;;;;;4941845;28;20296;-78
2022/04/04 06:28:18;;;;;;;10.80;9.70;;;3.90;1.00;;;;;;4941850;28;20234;-76
2022/04/04 06:30:48;;;;;;;11.27;10.05;;;4.00;1.00;;;;;;4955086;28;20241;-77
2022/04/04 06:33:15;;;;;;;10.43;9.35;;;4.20;1.00;;;;;;4952460;28;25392;-75
2022/04/04 06:35:41;;;;;;;12.85;11.15;;;4.30;1.00;;;;;;4951136;28;20252;-75
2022/04/04 06:38:10;;;;;;;11.77;10.60;;;4.40;1.00;;;;;;4944309;28;20293;-76
2022/04/04 06:40:37;;;;;;;11.40;10.40;;;4.40;1.00;;;;;;4945175;28;21692;-75
2022/04/04 06:43:04;;;;;;;12.65;11.35;;;4.50;1.00;;;;;;4957407;28;20285;-75
2022/04/04 06:45:30;;;;;;;10.48;9.38;;;4.60;1.00;;;;;;4941668;28;20318;-75
2022/04/04 06:47:57;;;;;;;10.93;9.60;;;4.60;1.00;;;;;;4950456;28;20240;-77
2022/04/04 06:50:26;;;;;;;10.38;9.32;;;4.70;1.00;;;;;;4931880;28;21047;-74
2022/04/04 06:52:59;;;;;;;13.23;11.05;;;4.70;1.00;;;;;;4944939;28;20244;-78
2022/04/04 06:55:28;;;;;;;12.80;11.13;;;4.70;1.00;;;;;;4896252;28;20237;-76
2022/04/04 06:57:55;;;;;;;18.38;11.10;;;4.80;1.00;;;;;;4941318;28;20276;-76
2022/04/04 07:00:23;;;;;;;12.88;11.55;;;4.80;1.00;;;;;;4952727;28;20240;-76
2022/04/04 07:02:55;;;;;;;12.20;11.00;;;4.90;1.00;;;;;;4946037;28;20233;-76
2022/04/04 07:05:22;;;;;;;13.27;11.32;;;4.90;1.00;;;;;;4942824;28;20249;-75
2022/04/04 07:07:50;;;;;;;12.48;11.23;;;5.00;1.00;;;;;;4949244;28;20300;-77
2022/04/04 07:10:17;;;;;;;13.93;10.57;;;5.00;1.00;;;;;;4949637;28;20236;-74
2022/04/04 07:12:52;;;;;;;12.02;10.77;;;5.10;1.00;;;;;;4954888;28;20241;-75
2022/04/04 07:15:19;;;;;;;16.42;11.90;;;5.30;1.00;;;;;;4953141;28;20244;-75
2022/04/04 07:17:46;;;;;;;14.32;11.50;;;5.50;1.00;;;;;;4956280;28;20236;-75
2022/04/04 07:20:13;;;;;;;12.70;11.45;;;5.40;1.00;;;;;;4954340;28;20241;-76
2022/04/04 07:22:42;;;;;;;15.18;13.52;;;5.40;1.00;;;;;;4950674;28;20971;-77
2022/04/04 07:25:10;;;;;;;16.05;12.50;;;5.50;1.00;;;;;;4958851;28;20255;-77
2022/04/04 07:27:43;;;;;;;13.32;11.95;;;5.60;1.00;;;;;;4957190;28;20244;-75
2022/04/04 07:30:13;;;;;;;13.35;12.00;;;5.60;1.00;;;;;;4954896;28;20296;-76
2022/04/04 07:32:41;;;;;;;12.40;11.20;;;5.70;1.00;;;;;;4954069;28;20781;-76
2022/04/04 07:35:11;;;;;;;13.82;12.52;;;5.80;1.00;;;;;;4947405;28;20237;-76
2022/04/04 07:37:41;;;;;;;15.60;12.57;;;5.80;1.00;;;;;;4948751;28;20232;-75
2022/04/04 07:40:10;;;;;;;13.25;11.50;;;5.80;1.00;;;;;;4943491;28;20248;-78
2022/04/04 07:42:43;;;;;;;13.50;12.10;;;5.90;1.00;;;;;;4951055;28;20403;-75
2022/04/04 07:45:14;;;;;;;14.70;13.07;;;6.10;1.00;;;;;;4950066;28;20233;-75
2022/04/04 07:47:42;;;;;;;13.55;11.65;;;6.20;1.00;;;;;;4940917;28;20233;-77
2022/04/04 07:50:13;;;;;;;15.25;12.55;;;6.20;1.00;;;;;;4946372;28;20340;-78
2022/04/04 07:52:42;;;;;;;13.35;11.95;;;6.10;1.00;;;;;;4944822;28;20237;-77
2022/04/04 07:55:12;;;;;;;13.80;10.60;;;6.10;1.00;;;;;;4949924;28;20257;-76
2022/04/04 07:57:42;;;;;;;12.90;11.57;;;6.20;1.00;;;;;;4946712;28;20245;-77
2022/04/04 08:00:14;;;;;;;16.13;12.60;;;6.40;1.00;;;;;;4952857;28;21481;-78
2022/04/04 08:02:42;;;;;;;14.60;12.48;;;6.50;1.00;;;;;;4953816;28;20218;-77
2022/04/04 08:05:11;;;;;;;15.18;13.02;;;6.80;1.00;;;;;;4962078;28;20241;-78
2022/04/04 08:07:40;;;;;;;13.63;12.23;;;7.00;1.00;;;;;;4959443;28;20352;-79
2022/04/04 08:10:13;;;;;;;16.42;12.13;;;7.00;1.00;;;;;;4962689;28;20249;-77
2022/04/04 08:12:40;;;;;;;22.63;13.25;;;7.10;1.00;;;;;;4957275;28;20261;-76
2022/04/04 08:15:08;;;;;;;14.05;11.75;;;7.00;1.00;;;;;;4953622;28;20247;-77
2022/04/04 08:17:44;;;;;;;12.98;11.60;;;6.90;1.00;;;;;;4957250;28;20240;-78
2022/04/04 08:20:13;;;;;;;12.52;11.30;;;7.00;1.00;;;;;;4962034;28;20291;-78
2022/04/04 08:22:40;;;;;;;13.90;12.50;;;6.90;1.00;;;;;;4963471;28;20253;-77
2022/04/04 08:25:12;;;;;;;12.75;11.45;;;6.90;1.00;;;;;;4964773;28;20308;-77
2022/04/04 08:27:41;;;;;;;12.73;11.25;;;6.90;1.00;;;;;;4949459;28;20241;-77
2022/04/04 08:30:17;;;;;;;12.55;10.80;;;7.20;1.00;;;;;;4949159;28;20241;-77
2022/04/04 08:32:45;;;;;;;13.57;12.32;;;7.20;1.00;;;;;;4954745;28;20570;-77
2022/04/04 08:35:14;;;;;;;12.27;11.13;;;7.30;1.00;;;;;;4961219;28;20241;-77
2022/04/04 08:37:43;;;;;;;14.35;11.00;;;7.40;1.00;;;;;;4959415;28;20422;-77
2022/04/04 08:40:12;;;;;;;15.05;11.63;;;7.40;1.00;;;;;;4959483;28;20260;-78
2022/04/04 08:42:42;;;;;;;12.82;11.38;;;7.50;1.00;;;;;;4948896;28;20328;-78
2022/04/04 08:45:13;;;;;;;12.85;11.57;;;7.50;1.00;;;;;;4943586;28;20225;-77
2022/04/04 08:47:41;;;;;;;11.75;10.65;;;7.30;1.00;;;;;;4943157;28;20280;-78
2022/04/04 08:50:11;;;;;;;12.63;11.43;;;7.20;1.00;;;;;;4942456;28;20234;-77
2022/04/04 08:52:39;;;;;;;12.00;10.77;;;7.20;1.00;;;;;;4949073;28;20282;-77
2022/04/04 08:55:08;;;;;;;13.43;11.77;;;7.30;1.00;;;;;;4945761;28;20238;-77
2022/04/04 08:57:34;;;;;;;12.18;11.05;;;7.40;1.00;;;;;;4938797;28;20310;-77
2022/04/04 09:00:04;;;;;;;12.60;11.30;;;7.50;1.00;;;;;;4940876;28;21699;-77
2022/04/04 09:02:32;;;;;;;12.27;10.13;;;7.60;1.00;;;;;;4932482;28;20234;-78
2022/04/04 09:05:07;;;;;;;11.05;9.90;;;7.60;1.00;;;;;;4933118;28;20318;-78
2022/04/04 09:08:04;;;;;;;11.73;10.52;;;7.70;1.00;;;;;;4951931;28;20255;-77
2022/04/04 09:10:34;;;;;;;12.85;9.57;;;7.70;1.00;;;;;;4948469;28;20438;-78
2022/04/04 09:13:14;;;;;;;14.45;10.48;;;7.80;1.00;;;;;;4953989;28;20236;-78
2022/04/04 09:16:00;;;;;;;12.18;9.10;;;8.00;1.00;;;;;;4950799;28;20245;-76
2022/04/04 09:18:50;;;;;;;10.48;9.35;;;8.10;1.00;;;;;;4954508;28;20233;-77
2022/04/04 09:21:38;;;;;;;13.95;9.93;;;8.20;1.00;;;;;;4924652;28;20254;-75
2022/04/04 09:24:11;;;;;;;13.98;10.65;;;8.20;1.00;;;;;;4943686;28;20332;-77
2022/04/04 09:26:40;;;;;;;11.05;9.88;;;8.20;1.00;;;;;;4956118;28;20319;-76
2022/04/04 09:29:09;;;;;;;11.75;10.55;;;8.10;1.00;;;;;;4932068;28;20247;-78
2022/04/04 09:31:36;;;;;;;9.65;8.65;;;8.20;1.00;;;;;;4932700;28;20388;-77
2022/04/04 09:34:04;;;;;;;10.40;8.98;;;8.50;1.00;;;;;;4926035;28;20265;-76
2022/04/04 09:36:32;;;;;;;13.02;9.07;;;8.80;1.00;;;;;;4930399;28;20265;-76
2022/04/04 09:39:08;;;;;;;12.57;8.98;;;9.00;1.00;;;;;;4930687;28;20340;-74
2022/04/04 09:41:36;;;;;;;12.23;10.45;;;9.60;1.00;;;;;;4938933;28;20245;-76
2022/04/04 09:44:06;;;;;;;9.98;8.63;;;9.50;1.00;;;;;;4947324;28;20217;-75
2022/04/04 09:46:34;;;;;;;13.20;9.90;;;9.50;1.00;;;;;;4949897;28;20240;-77
2022/04/04 09:49:13;;;;;;;10.70;9.55;;;9.50;1.00;;;;;;4960255;28;20612;-75
2022/04/04 09:51:42;;;;;;;16.15;9.57;;;9.90;1.00;;;;;;4965329;28;20244;-76
2022/04/04 09:54:15;;;;;;;11.53;9.30;;;10.20;1.00;;;;;;4945611;28;20251;-74
2022/04/04 09:56:42;;;;;;;11.50;10.10;;;10.60;1.00;;;;;;4960659;28;20473;-76
2022/04/04 09:59:12;;;;;;;11.10;10.10;;;10.50;1.00;;;;;;4948349;28;20434;-75
2022/04/04 10:01:45;;;;;;;9.80;8.90;;;10.60;1.00;;;;;;4950999;28;20432;-76
2022/04/04 10:04:13;;;;;;;12.00;11.00;;;11.00;1.00;;;;;;4948088;28;20545;-75
2022/04/04 10:06:42;;;;;;;19.90;10.70;;;11.60;1.00;;;;;;4948782;28;20477;-76
2022/04/04 10:09:14;;;;;;;15.30;9.73;;;11.40;1.00;;;;;;4945384;28;20452;-76
2022/04/04 10:11:46;;;;;;;15.17;10.40;;;11.20;1.00;;;;;;4948317;28;20453;-76
2022/04/04 10:14:16;;;;;;;15.07;10.20;;;11.30;1.00;;;;;;4955294;28;20482;-75
2022/04/04 10:16:44;;;;;;;11.13;9.60;;;11.70;1.00;;;;;;4945919;28;20451;-77
2022/04/04 10:19:12;;;;;;;14.87;10.63;;;12.10;1.00;;;;;;4946893;28;20437;-75
2022/04/04 10:21:45;;;;;;;10.80;9.70;;;12.00;1.00;;;;;;4950992;28;20492;-75
2022/04/04 10:24:14;;;;;;;12.73;9.87;;;12.20;1.00;;;;;;4945650;28;20456;-74
2022/04/04 10:26:42;;;;;;;11.13;9.97;;;12.50;1.00;;;;;;4951068;28;20503;-77
2022/04/04 10:29:14;;;;;;;10.47;9.53;;;12.60;1.00;;;;;;4947330;28;20469;-76
2022/04/04 10:31:47;;;;;;;13.80;9.43;;;12.80;1.00;;;;;;4942039;28;21843;-76
2022/04/04 10:34:15;;;;;;;11.90;10.03;;;12.00;1.00;;;;;;4950083;28;20433;-75
2022/04/04 10:37:00;;;;;;;12.70;9.80;;;11.20;1.00;;;;;;4941067;28;20480;-78
2022/04/04 10:39:37;;;;;;;10.37;9.03;;;10.60;1.00;;;;;;4937927;28;20497;-75
2022/04/04 10:42:24;;;;;;;12.55;9.65;;;10.00;1.00;;;;;;4944099;28;20528;-78
2022/04/04 10:44:57;;;;;;;13.02;10.00;;;9.70;1.00;;;;;;4939761;28;20246;-76
2022/04/04 10:47:24;;;;;;;11.70;10.00;;;9.70;1.00;;;;;;4945797;28;20300;-76
2022/04/04 10:49:55;;;;;;;15.55;9.75;;;9.70;1.00;;;;;;4943896;28;20245;-75
2022/04/04 10:52:39;;;;;;;15.70;10.07;;;9.40;1.00;;;;;;4951027;28;20321;-76
2022/04/04 10:55:43;;;;;;;12.15;10.50;;;9.30;1.00;;;;;;4945231;28;20539;-76
2022/04/04 10:58:23;;;;;;;13.27;10.55;;;9.10;1.00;;;;;;4945738;28;20331;-76
2022/04/04 11:01:07;;;;;;;13.45;10.52;;;9.10;1.00;;;;;;4949778;28;20237;-75
2022/04/04 11:03:37;;;;;;;18.35;9.82;;;9.10;1.00;;;;;;4941693;28;20244;-76
2022/04/04 11:09:01;;;;;;;20.10;9.10;;;9.40;1.00;;;;;;4948490;28;20241;-77
2022/04/04 11:11:54;;;;;;;10.98;9.63;;;9.10;1.00;;;;;;4939136;28;20784;-77
2022/04/04 11:15:01;;;;;;;13.87;8.53;;;9.30;1.00;;;;;;4959282;28;20276;-76
2022/04/04 11:17:36;;;;;;;11.30;8.23;;;9.30;1.00;;;;;;4946381;28;20442;-74
2022/04/04 11:20:21;;;;;;;12.20;8.10;;;9.30;1.00;;;;;;4950354;28;20737;-75
2022/04/04 11:22:55;;;;;;;13.15;9.07;;;9.30;1.00;;;;;;4947781;28;20241;-76
2022/04/04 11:25:23;;;;;;;12.30;8.70;;;9.40;1.00;;;;;;4950569;28;20320;-76
2022/04/04 11:27:57;;;;;;;11.45;8.25;;;9.30;1.00;;;;;;4968369;23;20287;-76
2022/04/04 11:30:25;;;;;;;11.73;7.50;;;9.30;1.00;;;;;;4954286;28;20236;-76
2022/04/04 11:32:57;;;;;;;9.05;8.15;;;9.20;1.00;;;;;;4964134;28;20519;-76
2022/04/04 11:35:27;;;;;;;8.48;7.03;;;9.20;1.00;;;;;;4973643;28;20344;-77
2022/04/04 11:37:56;;;;;;;9.63;6.78;;;9.10;1.00;;;;;;4977193;23;21138;-75
2022/04/04 11:40:25;;;;;;;15.75;7.18;;;9.00;1.00;;;;;;4966160;28;21535;-77
2022/04/04 11:42:54;;;;;;;12.88;6.85;;;9.10;1.00;;;;;;4948938;28;20938;-75
2022/04/04 11:45:27;;;;;;;11.20;6.18;;;9.20;1.00;;;;;;4940609;28;20237;-75
2022/04/04 11:48:02;;;;;;;31.35;9.45;;;9.00;1.00;;;;;;4924453;28;20241;-76
2022/04/04 11:50:32;;;;;;;9.52;6.72;;;9.00;1.00;;;;;;4931740;28;20237;-77
2022/04/04 11:53:02;;;;;;;9.88;6.05;;;8.90;1.00;;;;;;4922381;28;20238;-76
2022/04/04 11:55:30;;;;;;;11.18;5.75;;;8.90;1.00;;;;;;4919456;28;20261;-77
2022/04/04 11:58:00;;;;;;;11.65;6.85;;;8.90;1.00;;;;;;4941492;23;20251;-76
2022/04/04 12:00:37;;;;;;;8.65;6.15;;;9.00;1.00;;;;;;4943991;28;20229;-76
2022/04/04 12:03:09;;;;;;;10.05;5.85;;;8.90;1.00;;;;;;4947895;28;20304;-76
2022/04/04 12:05:36;;;;;;;9.13;5.95;;;8.70;1.00;;;;;;4944616;28;20356;-76
2022/04/04 12:08:05;;;;;;;15.65;6.25;;;8.70;1.00;;;;;;4944299;28;20324;-75
2022/04/04 12:10:35;;;;;;;8.90;5.45;;;8.50;1.00;;;;;;4943176;28;21686;-76
2022/04/04 12:13:06;;;;;;;10.68;6.25;;;8.50;1.00;;;;;;4939967;28;20239;-76
2022/04/04 12:15:35;;;;;;;8.38;5.13;;;8.50;1.00;;;;;;4940148;28;20426;-76
2022/04/04 12:18:03;;;;;;;9.32;5.25;;;8.60;1.00;;;;;;4939225;28;20245;-75
2022/04/04 12:20:38;;;;;;;10.98;4.90;;;8.60;1.00;;;;;;4942208;28;20435;-76
2022/04/04 12:25:56;;;;;;;11.68;4.60;;;8.30;1.00;;;;;;4936073;28;20340;-77
2022/04/04 12:28:26;;;;;;;8.57;4.63;;;8.00;1.00;;;;;;4936292;28;20791;-77
2022/04/04 12:30:58;;;;;;;8.15;4.60;;;7.80;1.00;;;;;;4943797;28;20248;-77
2022/04/04 12:33:37;;;;;;;12.23;5.30;;;7.70;1.00;;;;;;4915829;28;21081;-79
2022/04/04 12:36:09;;;;;;;8.90;5.30;;;7.60;1.00;;;;;;4930770;28;20233;-78
2022/04/04 12:38:37;;;;;;;10.18;4.75;;;7.60;1.00;;;;;;4947503;28;20361;-78
2022/04/04 12:41:10;;;;;;;13.32;5.38;;;7.40;1.00;;;;;;4942007;28;20309;-78
2022/04/04 12:43:43;;;;;;;16.83;5.97;;;7.10;1.00;;;;;;4934760;28;20394;-79
2022/04/04 12:46:30;;;;;;;11.68;6.90;;;6.90;1.00;;;;;;4935981;28;21567;-78
2022/04/04 12:49:11;;;;;;;7.93;6.10;;;6.60;1.00;;;;;;4924181;28;20222;-79
2022/04/04 12:51:40;;;;;;;11.63;6.72;;;6.30;1.00;;;;;;4949106;28;20788;-78
2022/04/04 12:54:25;;;;;;;9.77;6.15;;;6.20;1.00;;;;;;4935818;28;20247;-78
2022/04/04 12:56:51;;;;;;;11.23;6.80;;;6.10;1.00;;;;;;4941283;28;20260;-77
2022/04/04 12:59:24;;;;;;;11.50;6.78;;;6.00;1.00;;;;;;4951104;28;20261;-81
2022/04/04 13:02:05;;;;;;;12.45;6.68;;;5.90;1.00;;;;;;4951764;28;20904;-79
2022/04/04 13:04:32;;;;;;;12.65;8.15;;;5.80;1.00;;;;;;4948616;28;20245;-78
2022/04/04 13:07:00;;;;;;;11.48;8.10;;;5.50;1.00;;;;;;4946763;28;20257;-79
2022/04/04 13:09:28;;;;;;;11.35;9.23;;;5.40;1.00;;;;;;4937329;28;20279;-78
2022/04/04 13:11:56;;;;;;;17.30;9.75;;;5.10;1.00;;;;;;4937853;28;20323;-78
2022/04/04 13:14:26;;;;;;;11.35;9.85;;;4.80;1.00;;;;;;4935668;28;20273;-80
2022/04/04 13:16:56;;;;;;;13.45;10.27;;;4.50;1.00;;;;;;4946191;28;20492;-79
2022/04/04 13:19:25;;;;;;;13.70;9.95;;;4.30;1.00;;;;;;4945446;28;20225;-79
2022/04/04 13:21:53;;;;;;;13.93;10.50;;;4.10;1.00;;;;;;4950887;28;20300;-80
2022/04/04 13:24:23;;;;;;;13.93;11.55;;;4.00;1.00;;;;;;4949337;28;20363;-78
2022/04/04 13:26:52;;;;;;;12.50;10.38;;;3.90;1.00;;;;;;4943607;28;20233;-78